Time;durP1;ratioP1;P1;durP2;ratioP2;P2;SDS_P1;SDS_P2;PMS_P1;PMS_P2;Temp;Humidity;BMP_temperature;BMP_pressure;BME280_temperature;BME280_humidity;BME280_pressure;Samples;Min_cycle;Max_cycle;Signal;HPM_P1;HPM_P2
2022/04/01 00:01:41;;;;;;;17.87;12.27;;;;;;;10.69;61.92;96802.69;6924886;28;20232;-80
2022/04/01 00:05:02;;;;;;;16.27;12.97;;;;;;;10.69;61.70;96801.88;6925089;28;20213;-80
2022/04/01 00:08:24;;;;;;;18.77;12.93;;;;;;;10.54;60.93;96793.63;6923787;28;20227;-80
2022/04/01 00:11:46;;;;;;;18.40;12.10;;;;;;;10.65;61.76;96808.84;6924640;28;20299;-80
2022/04/01 00:15:12;;;;;;;16.10;12.17;;;;;;;10.70;61.30;96808.91;6925286;28;20195;-80
2022/04/01 00:18:33;;;;;;;16.93;13.37;;;;;;;10.77;61.10;96806.81;6922091;28;20239;-80
2022/04/01 00:21:55;;;;;;;18.13;13.93;;;;;;;10.71;61.26;96797.03;6923003;28;20227;-80
2022/04/01 00:25:17;;;;;;;20.63;14.33;;;;;;;10.70;61.31;96806.19;6923667;28;20700;-80
2022/04/01 00:28:39;;;;;;;18.87;12.70;;;;;;;10.67;61.16;96802.13;6923155;28;20235;-80
2022/04/01 00:32:01;;;;;;;21.03;13.43;;;;;;;10.75;61.02;96808.94;6924054;28;20207;-80
2022/04/01 00:35:23;;;;;;;16.93;13.33;;;;;;;10.84;61.67;96800.16;6923105;28;20208;-80
2022/04/01 00:38:45;;;;;;;17.23;13.07;;;;;;;10.68;61.30;96805.66;6922740;28;20291;-80
2022/04/01 00:42:07;;;;;;;16.27;11.70;;;;;;;10.52;60.64;96793.06;6923894;28;20232;-80
2022/04/01 00:45:29;;;;;;;13.20;10.77;;;;;;;10.31;61.57;96797.44;6923688;28;20200;-80
2022/04/01 00:48:51;;;;;;;13.33;10.17;;;;;;;10.63;60.57;96805.59;6913753;28;20311;-80
2022/04/01 00:52:18;;;;;;;15.10;11.03;;;;;;;10.41;60.77;96796.72;6898227;28;20209;-80
2022/04/01 00:55:40;;;;;;;12.93;11.17;;;;;;;10.44;61.28;96798.91;6895803;28;20925;-81
2022/04/01 00:59:03;;;;;;;13.20;10.37;;;;;;;10.38;60.96;96802.59;6897169;28;20287;-80
2022/04/01 01:02:25;;;;;;;12.70;9.60;;;;;;;10.20;60.74;96803.75;6900638;28;20252;-80
2022/04/01 01:05:48;;;;;;;14.17;10.30;;;;;;;10.19;61.49;96804.00;6897200;28;20215;-81
2022/04/01 01:09:10;;;;;;;14.23;10.70;;;;;;;10.53;61.21;96803.59;6897579;28;20319;-80
2022/04/01 01:12:32;;;;;;;13.93;10.47;;;;;;;10.43;60.68;96800.78;6897549;28;20300;-81
2022/04/01 01:15:54;;;;;;;14.00;10.13;;;;;;;10.15;60.82;96809.06;6896567;28;20210;-81
2022/04/01 01:19:16;;;;;;;13.20;9.87;;;;;;;10.03;60.79;96791.41;6897906;28;20247;-80
2022/04/01 01:22:39;;;;;;;9.87;8.37;;;;;;;10.01;60.20;96799.72;6897435;28;20235;-80
2022/04/01 01:26:03;;;;;;;9.20;7.87;;;;;;;10.15;60.56;96794.81;6896441;28;20239;-80
2022/04/01 01:29:27;;;;;;;12.00;9.07;;;;;;;10.13;60.61;96799.63;6896489;28;20319;-80
2022/04/01 01:32:49;;;;;;;9.30;8.30;;;;;;;9.99;59.74;96801.03;6896652;28;20208;-80
2022/04/01 01:36:12;;;;;;;9.90;8.40;;;;;;;10.18;60.15;96800.50;6897512;28;20232;-81
2022/04/01 01:39:33;;;;;;;8.70;7.23;;;;;;;10.18;59.93;96799.69;6898069;28;20296;-80
2022/04/01 01:42:56;;;;;;;10.27;8.30;;;;;;;10.29;60.04;96796.88;6896302;28;20259;-80
2022/04/01 01:46:18;;;;;;;8.70;7.80;;;;;;;9.84;59.58;96807.03;6898206;28;20211;-81
2022/04/01 01:54:42;;;;;;;9.43;8.03;;;;;;;10.23;59.43;96799.75;6896306;28;20288;-80
2022/04/01 01:57:00;;;;;;;10.50;8.70;;;;;;;10.11;60.05;96799.06;6896409;28;20590;-80
2022/04/01 02:00:23;;;;;;;8.60;7.67;;;;;;;9.98;60.17;96804.78;6897381;28;20236;-80
2022/04/01 02:03:45;;;;;;;9.30;7.97;;;;;;;9.96;59.88;96794.28;6896968;28;20228;-80
2022/04/01 02:07:07;;;;;;;9.33;8.00;;;;;;;9.84;60.37;96781.97;6895543;28;20570;-80
2022/04/01 02:10:29;;;;;;;10.40;8.20;;;;;;;9.71;60.96;96782.34;6895004;28;20232;-80
2022/04/01 02:13:51;;;;;;;10.57;8.87;;;;;;;9.98;60.53;96792.13;6895648;28;20225;-80
2022/04/01 02:17:14;;;;;;;10.50;8.63;;;;;;;9.69;60.54;96738.75;6896211;28;20704;-80
2022/04/01 02:20:35;;;;;;;13.27;9.13;;;;;;;10.06;60.63;96789.06;6896419;28;20363;-80
2022/04/01 02:23:57;;;;;;;14.83;10.27;;;;;;;9.94;60.75;96796.41;6896837;28;20228;-80
2022/04/01 02:27:18;;;;;;;14.23;11.17;;;;;;;10.02;60.94;96795.97;6895507;28;20244;-80
2022/04/01 02:30:40;;;;;;;16.03;11.00;;;;;;;10.04;61.48;96790.38;6896819;28;20572;-80
2022/04/01 02:34:04;;;;;;;12.80;10.57;;;;;;;9.93;61.08;96800.13;6896274;28;20218;-81
2022/04/01 02:37:25;;;;;;;16.20;11.53;;;;;;;10.05;60.96;96797.38;6895221;28;20214;-80
2022/04/01 02:40:47;;;;;;;14.97;11.47;;;;;;;10.01;60.74;96791.66;6896460;28;20205;-80
2022/04/01 02:44:12;;;;;;;12.67;9.77;;;;;;;10.04;60.33;96787.66;6896328;28;20707;-81
2022/04/01 02:47:33;;;;;;;12.10;10.67;;;;;;;9.72;61.25;96794.72;6895640;28;20206;-81
2022/04/01 02:50:56;;;;;;;13.27;10.97;;;;;;;9.90;60.63;96797.13;6896302;28;20263;-80
2022/04/01 02:54:20;;;;;;;16.10;11.97;;;;;;;9.94;61.10;96790.19;6897506;28;20209;-80
2022/04/01 02:57:42;;;;;;;15.17;11.70;;;;;;;10.00;61.15;96795.41;6895483;28;20315;-80
2022/04/01 03:01:03;;;;;;;15.60;11.90;;;;;;;9.74;61.08;96771.91;6897017;28;20575;-80
2022/04/01 03:04:25;;;;;;;11.33;9.53;;;;;;;9.69;60.69;96793.34;6896970;28;20212;-80
2022/04/01 03:07:48;;;;;;;13.57;10.47;;;;;;;9.94;60.76;96806.34;6895432;28;20221;-80
2022/04/01 03:11:09;;;;;;;10.70;9.57;;;;;;;9.76;61.03;96803.94;6895485;28;20645;-80
2022/04/01 03:14:31;;;;;;;13.77;9.93;;;;;;;9.80;60.94;96795.13;6895938;28;20260;-80
2022/04/01 03:17:53;;;;;;;11.23;9.97;;;;;;;9.87;61.15;96795.75;6897018;28;20270;-80
2022/04/01 03:21:15;;;;;;;12.07;10.00;;;;;;;9.90;60.63;96806.03;6898296;28;20209;-81
2022/04/01 03:24:38;;;;;;;10.37;8.33;;;;;;;9.49;61.03;96813.75;6897620;28;20669;-81
2022/04/01 03:28:02;;;;;;;10.47;9.33;;;;;;;9.74;60.75;96814.16;6897677;28;20283;-81
2022/04/01 03:31:23;;;;;;;10.20;8.60;;;;;;;9.39;60.71;96824.38;6897949;28;20211;-81
2022/04/01 03:34:45;;;;;;;9.23;8.23;;;;;;;9.46;60.95;96827.72;6897822;28;20218;-81
2022/04/01 03:38:10;;;;;;;9.53;8.20;;;;;;;9.54;60.65;96811.16;6897488;28;20740;-81
2022/04/01 03:41:33;;;;;;;10.90;9.73;;;;;;;9.24;61.01;96808.00;6897742;28;20235;-81
2022/04/01 03:44:55;;;;;;;11.30;9.37;;;;;;;9.39;61.19;96824.38;6908221;28;20231;-81
2022/04/01 03:48:25;;;;;;;11.60;9.67;;;;;;;9.34;61.42;96833.16;6896645;28;20355;-80
2022/04/01 03:51:49;;;;;;;10.57;9.47;;;;;;;9.13;62.09;96806.22;6897613;28;20195;-80
2022/04/01 03:55:11;;;;;;;10.77;9.37;;;;;;;9.31;61.22;96830.16;6902644;28;20201;-80
2022/04/01 03:58:35;;;;;;;11.40;9.77;;;;;;;9.83;61.38;96832.31;6901352;28;20752;-81
2022/04/01 04:01:57;;;;;;;13.37;10.60;;;;;;;9.91;60.38;96820.28;6902739;28;20235;-81
2022/04/01 04:05:22;;;;;;;12.37;10.33;;;;;;;9.71;60.65;96815.47;6903864;28;20220;-80
2022/04/01 04:08:44;;;;;;;11.93;10.20;;;;;;;9.68;60.90;96824.00;6901105;28;20241;-81
2022/04/01 04:12:07;;;;;;;12.80;10.27;;;;;;;9.76;61.06;96834.38;6902707;28;20365;-80
2022/04/01 04:15:39;;;;;;;11.77;10.57;;;;;;;9.63;60.54;96837.38;6927715;28;20300;-81
2022/04/01 04:19:04;;;;;;;12.00;10.10;;;;;;;9.44;61.09;96838.72;6938618;28;20234;-81
2022/04/01 04:22:31;;;;;;;14.17;11.10;;;;;;;9.53;60.96;96841.81;6949120;28;20255;-81
2022/04/01 04:26:00;;;;;;;12.17;10.40;;;;;;;9.35;61.31;96837.50;6944857;28;20576;-81
2022/04/01 04:29:21;;;;;;;11.17;9.97;;;;;;;9.48;60.89;96847.94;6924520;28;20318;-81
2022/04/01 04:32:50;;;;;;;12.07;10.77;;;;;;;9.38;61.26;96849.63;6922620;28;20262;-81
2022/04/01 04:36:13;;;;;;;15.50;10.63;;;;;;;9.73;60.91;96834.84;6923604;28;20215;-81
2022/04/01 04:39:36;;;;;;;11.33;9.90;;;;;;;9.59;60.87;96849.72;6924152;28;20227;-81
2022/04/01 04:42:58;;;;;;;13.47;9.63;;;;;;;9.51;61.19;96835.88;6923285;28;20692;-81
2022/04/01 04:46:20;;;;;;;10.17;9.17;;;;;;;9.56;60.80;96852.88;6923216;28;20254;-81
2022/04/01 04:49:43;;;;;;;9.67;8.67;;;;;;;9.50;61.05;96853.88;6925690;28;20232;-81
2022/04/01 04:53:05;;;;;;;8.33;7.53;;;;;;;9.33;60.98;96853.06;6925950;28;20641;-80
2022/04/01 04:56:27;;;;;;;7.70;7.00;;;;;;;9.21;60.86;96851.53;6924616;28;20796;-81
2022/04/01 05:00:02;;;;;;;7.73;6.93;;;;;;;9.12;60.36;96847.59;6925268;28;20238;-83
2022/04/01 05:03:34;;;;;;;7.13;6.43;;;;;;;9.37;59.73;96838.06;6931835;28;20255;-86
2022/04/01 05:07:13;;;;;;;6.17;5.63;;;;;;;9.20;59.63;96860.63;6932249;28;20191;-83
2022/04/01 05:10:42;;;;;;;6.97;6.27;;;;;;;8.32;61.29;96784.34;6932398;28;20293;-85
2022/04/01 05:14:13;;;;;;;7.13;6.43;;;;;;;8.99;60.11;96874.78;6937582;28;20290;-85
2022/04/01 05:17:36;;;;;;;7.27;6.57;;;;;;;8.87;59.96;96882.09;6943514;28;20231;-85
2022/04/01 05:21:02;;;;;;;6.87;6.27;;;;;;;8.51;60.71;96881.66;6929456;28;20218;-85
2022/04/01 05:24:29;;;;;;;7.63;6.93;;;;;;;8.57;60.70;96900.31;6948321;28;20266;-86
2022/04/01 05:27:57;;;;;;;6.83;6.23;;;;;;;8.68;60.56;96890.59;6957758;28;20714;-86
2022/04/01 05:31:22;;;;;;;7.57;6.90;;;;;;;8.47;60.54;96834.84;6958727;28;20181;-85
2022/04/01 05:34:46;;;;;;;6.60;6.00;;;;;;;8.50;59.60;96845.94;6935234;28;20211;-85
2022/04/01 05:38:08;;;;;;;7.00;6.30;;;;;;;8.55;60.24;96835.28;6930061;28;20223;-85
2022/04/01 05:41:31;;;;;;;6.47;5.87;;;;;;;8.42;60.52;96869.66;6930415;28;20215;-85
2022/04/01 05:44:53;;;;;;;7.70;7.00;;;;;;;8.57;60.72;96889.56;6928729;28;20314;-85
2022/04/01 05:48:17;;;;;;;6.73;6.13;;;;;;;8.68;60.13;96909.38;6932746;28;20239;-84
2022/04/01 05:51:42;;;;;;;6.93;6.23;;;;;;;9.11;59.42;96908.59;6931014;28;20210;-85
2022/04/01 05:55:07;;;;;;;7.07;6.40;;;;;;;8.93;58.76;96867.69;6926244;28;20462;-82
2022/04/01 05:58:30;;;;;;;8.13;7.30;;;;;;;9.29;58.90;96912.94;6933423;28;20232;-87
2022/04/01 06:02:02;;;;;;;7.00;6.40;;;;;;;8.87;60.33;96911.66;6934804;28;20211;-86
2022/04/01 06:05:27;;;;;;;8.33;7.53;;;;;;;8.64;59.79;96876.81;6932174;28;20514;-85
2022/04/01 06:08:58;;;;;;;7.53;6.83;;;;;;;8.84;59.51;96928.22;6927916;28;20227;-87
2022/04/01 06:12:25;;;;;;;7.00;6.37;;;;;;;7.86;60.23;96826.59;6919558;28;20222;-87
2022/04/01 06:20:22;;;;;;;7.93;7.13;;;;;;;8.68;59.94;96902.16;6894603;28;20258;-81
2022/04/01 06:23:56;;;;;;;8.33;7.53;;;;;;;8.72;60.25;96932.03;6922472;28;20321;-81
2022/04/01 06:27:22;;;;;;;7.90;7.10;;;;;;;8.90;60.06;96938.03;6918840;28;20208;-81
2022/04/01 06:30:44;;;;;;;7.50;6.80;;;;;;;8.72;59.36;96940.09;6919651;28;20188;-80
2022/04/01 06:34:14;;;;;;;8.93;7.73;;;;;;;8.88;59.57;96939.31;6918108;28;20719;-80
2022/04/01 06:37:40;;;;;;;8.30;7.47;;;;;;;9.07;59.19;96949.63;6919131;28;20221;-81
2022/04/01 06:41:05;;;;;;;8.67;7.87;;;;;;;8.88;60.14;96953.56;6923584;28;20196;-84
2022/04/01 06:44:27;;;;;;;8.23;7.43;;;;;;;8.60;60.67;96950.84;6923498;28;20365;-84
2022/04/01 06:47:48;;;;;;;11.20;9.80;;;;;;;8.80;60.80;96947.78;6922217;28;20235;-80
2022/04/01 06:51:12;;;;;;;13.03;10.57;;;;;;;8.97;60.62;96954.84;6917523;28;20282;-81
2022/04/01 06:54:33;;;;;;;12.57;10.80;;;;;;;8.97;60.94;96945.97;6918366;28;20290;-81
2022/04/01 06:57:55;;;;;;;11.97;10.67;;;;;;;8.91;60.89;96968.41;6917284;28;20216;-80
2022/04/01 07:01:17;;;;;;;11.70;10.03;;;;;;;8.66;61.40;96957.97;6911417;28;20236;-81
2022/04/01 07:04:39;;;;;;;10.60;9.53;;;;;;;8.64;60.92;96953.88;6911746;28;20223;-81
2022/04/01 07:08:02;;;;;;;11.37;10.10;;;;;;;9.04;61.11;96960.88;6903259;28;20692;-81
2022/04/01 07:11:23;;;;;;;12.10;10.37;;;;;;;8.92;60.35;96952.06;6895645;28;20661;-80
2022/04/01 07:14:45;;;;;;;11.57;10.37;;;;;;;9.15;60.53;96960.81;6896531;28;20223;-81
2022/04/01 07:18:07;;;;;;;11.40;9.50;;;;;;;9.07;60.40;96960.41;6896270;28;20228;-80
2022/04/01 07:21:29;;;;;;;11.67;10.43;;;;;;;8.90;61.36;96967.59;6889001;28;20216;-80
2022/04/01 07:24:52;;;;;;;11.90;10.73;;;;;;;9.13;60.38;96962.94;6886977;28;20371;-79
2022/04/01 07:28:14;;;;;;;11.60;10.40;;;;;;;9.12;59.95;96963.19;6888956;28;20224;-80
2022/04/01 07:35:21;;;;;;;11.37;10.17;;;;;;;9.04;60.30;96942.88;6892613;28;20196;-79
2022/04/01 07:38:42;;;;;;;10.87;9.77;;;;;;;9.16;59.72;96972.41;6892041;28;20220;-80
2022/04/01 07:42:06;;;;;;;11.00;9.73;;;;;;;9.45;59.32;96971.34;6893456;28;20204;-79
2022/04/01 07:45:29;;;;;;;10.90;9.47;;;;;;;9.18;59.98;96972.97;6915567;28;20716;-80
2022/04/01 07:48:51;;;;;;;10.57;9.43;;;;;;;9.21;59.40;96969.81;6918917;28;20232;-79
2022/04/01 07:52:14;;;;;;;9.40;8.40;;;;;;;8.68;60.79;96979.22;6919665;28;20728;-79
2022/04/01 07:55:35;;;;;;;10.23;9.17;;;;;;;9.07;59.97;96967.66;6912496;28;20724;-79
2022/04/01 07:58:59;;;;;;;8.47;7.77;;;;;;;9.03;59.24;96992.31;6891265;28;20228;-79
2022/04/01 08:02:21;;;;;;;10.00;9.00;;;;;;;9.17;58.42;96982.91;6891206;28;20673;-79
2022/04/01 08:05:42;;;;;;;10.60;9.50;;;;;;;9.00;60.41;96989.28;6891028;28;20216;-80
2022/04/01 08:09:04;;;;;;;12.50;10.63;;;;;;;9.38;60.03;96984.91;6903247;28;20344;-79
2022/04/01 08:12:26;;;;;;;11.80;10.60;;;;;;;9.13;59.48;96973.69;6917826;28;20222;-79
2022/04/01 08:15:49;;;;;;;11.97;10.63;;;;;;;9.25;59.42;96976.31;6917859;28;20846;-80
2022/04/01 08:19:10;;;;;;;11.93;10.73;;;;;;;8.70;60.47;96994.06;6918193;28;20693;-80
2022/04/01 08:22:32;;;;;;;12.40;11.10;;;;;;;9.10;59.93;97001.03;6920510;28;20240;-80
2022/04/01 08:25:53;;;;;;;10.77;9.67;;;;;;;8.76;60.37;96978.84;6919179;28;20211;-80
2022/04/01 08:29:15;;;;;;;11.77;10.20;;;;;;;8.63;60.36;96966.50;6919501;28;20286;-80
2022/04/01 08:32:44;;;;;;;12.00;10.80;;;;;;;9.21;59.88;97015.53;6927354;28;20212;-86
2022/04/01 08:36:06;;;;;;;10.90;9.80;;;;;;;8.84;60.30;97010.72;6919920;28;20257;-79
2022/04/01 08:39:28;;;;;;;15.90;11.83;;;;;;;9.29;61.20;97018.66;6917911;28;20311;-79
2022/04/01 08:42:50;;;;;;;10.80;9.70;;;;;;;9.82;59.63;97020.94;6917571;28;20251;-78
2022/04/01 08:46:12;;;;;;;9.90;8.90;;;;;;;8.94;59.16;97022.50;6917004;28;20687;-77
2022/04/01 08:49:35;;;;;;;10.87;9.77;;;;;;;8.93;60.36;97006.59;6917123;28;20596;-78
2022/04/01 08:52:56;;;;;;;11.67;10.47;;;;;;;8.93;59.89;97035.09;6919313;28;20246;-82
2022/04/01 08:56:20;;;;;;;10.50;9.13;;;;;;;8.67;60.14;97045.53;6919467;28;20585;-81
2022/04/01 08:59:41;;;;;;;12.63;10.20;;;;;;;8.89;60.79;97045.78;6917632;28;20373;-81
2022/04/01 09:03:06;;;;;;;10.20;8.77;;;;;;;8.67;61.27;97042.06;6919349;28;20309;-82
2022/04/01 09:06:30;;;;;;;13.13;10.77;;;;;;;9.01;60.78;97036.59;6918601;28;20838;-82
2022/04/01 09:10:01;;;;;;;10.50;9.40;;;;;;;8.63;60.67;97047.09;6918109;28;20220;-82
2022/04/01 09:13:24;;;;;;;9.83;8.80;;;;;;;8.94;60.33;97060.13;6918112;28;20301;-82
2022/04/01 09:16:51;;;;;;;8.73;7.83;;;;;;;8.53;60.73;97059.47;6917617;28;20212;-82
2022/04/01 09:20:15;;;;;;;9.37;8.47;;;;;;;8.60;60.92;97066.34;6918355;28;20250;-81
2022/04/01 09:23:38;;;;;;;8.17;7.43;;;;;;;8.95;60.15;97061.75;6918490;28;20704;-82
2022/04/01 09:27:00;;;;;;;9.23;7.50;;;;;;;8.82;60.38;97056.63;6917660;28;20250;-81
2022/04/01 09:30:24;;;;;;;8.73;7.83;;;;;;;8.19;61.97;97071.78;6918690;28;20240;-82
2022/04/01 09:33:50;;;;;;;8.63;7.73;;;;;;;8.47;61.36;97068.44;6917773;28;20208;-81
2022/04/01 09:37:12;;;;;;;8.63;7.70;;;;;;;8.22;61.58;97019.56;6919864;28;20203;-81
2022/04/01 09:40:35;;;;;;;8.60;7.80;;;;;;;8.87;60.93;97075.56;6919887;28;20283;-82
2022/04/01 09:44:02;;;;;;;8.37;7.57;;;;;;;8.71;61.10;97075.47;6919245;28;20731;-82
2022/04/01 09:47:24;;;;;;;8.17;7.40;;;;;;;8.55;60.21;97078.84;6919336;28;20204;-81
2022/04/01 09:50:55;;;;;;;7.10;6.40;;;;;;;8.06;60.58;97033.63;6920641;28;20218;-80
2022/04/01 09:54:17;;;;;;;7.93;7.13;;;;;;;7.99;61.09;97020.34;6919846;28;20192;-83
2022/04/01 09:57:40;;;;;;;7.07;6.37;;;;;;;8.11;60.35;97063.25;6920106;28;20204;-78
2022/04/01 10:01:02;;;;;;;7.60;6.80;;;;;;;8.48;60.93;97088.91;6922442;28;20199;-80
2022/04/01 10:04:24;;;;;;;6.60;5.50;;;;;;;8.60;60.24;97087.03;6912734;28;20211;-80
2022/04/01 10:07:46;;;;;;;8.07;6.20;;;;;;;8.91;60.23;97092.03;6920374;28;20262;-81
2022/04/01 10:11:07;;;;;;;6.90;6.20;;;;;;;8.51;61.11;97080.38;6918826;28;20293;-81
2022/04/01 10:14:31;;;;;;;7.60;6.80;;;;;;;8.54;61.54;97104.88;6912020;28;20254;-80
2022/04/01 10:17:54;;;;;;;6.87;6.17;;;;;;;8.47;62.45;97101.50;6917232;28;20230;-79
2022/04/01 10:21:18;;;;;;;7.23;6.53;;;;;;;7.79;63.05;97061.94;6919087;28;20208;-79
2022/04/01 10:24:44;;;;;;;7.57;6.83;;;;;;;8.64;61.92;97102.44;6915723;28;20633;-80
2022/04/01 10:28:06;;;;;;;6.40;5.80;;;;;;;8.24;62.14;97103.38;6916008;28;20219;-80
2022/04/01 10:31:29;;;;;;;6.47;5.87;;;;;;;8.61;61.14;97104.78;6916610;28;20218;-80
2022/04/01 10:34:53;;;;;;;6.77;6.07;;;;;;;8.88;60.86;97106.75;6915152;28;20311;-82
2022/04/01 10:38:17;;;;;;;6.30;5.70;;;;;;;8.51;60.67;97104.53;6913502;28;20322;-78
2022/04/01 10:41:38;;;;;;;6.53;5.93;;;;;;;8.98;60.22;97095.41;6915529;28;20295;-79
2022/04/01 10:45:03;;;;;;;7.07;6.37;;;;;;;8.99;60.07;97114.78;6916331;28;20228;-79
2022/04/01 10:52:19;;;;;;;5.90;5.40;;;;;;;9.11;58.87;97112.09;6913481;28;20235;-78
2022/04/01 10:55:40;;;;;;;5.80;5.30;;;;;;;8.81;58.85;97115.97;6913377;28;20238;-78
2022/04/01 10:59:13;;;;;;;5.50;5.00;;;;;;;9.05;59.58;97121.09;6914119;28;20249;-78
2022/04/01 11:02:35;;;;;;;5.47;5.00;;;;;;;8.74;59.47;97115.28;6913780;28;20564;-78
2022/04/01 11:06:23;;;;;;;7.00;5.37;;;;;;;8.43;60.21;97121.00;6919269;28;20219;-78
2022/04/01 11:09:46;;;;;;;5.47;4.97;;;;;;;8.98;59.58;97129.28;6919778;28;20274;-78
2022/04/01 11:13:28;;;;;;;5.70;5.20;;;;;;;8.82;60.43;97123.81;6919492;28;20689;-78
2022/04/01 11:16:50;;;;;;;6.50;5.90;;;;;;;8.92;59.79;97131.28;6918647;28;20188;-78
2022/04/01 11:20:13;;;;;;;5.17;4.67;;;;;;;8.56;59.03;97110.03;6919895;28;20231;-78
2022/04/01 11:23:37;;;;;;;5.30;4.87;;;;;;;8.94;59.53;97138.06;6920191;28;20259;-78
2022/04/01 11:27:06;;;;;;;6.80;5.10;;;;;;;8.33;60.56;97140.38;6894064;28;20219;-78
2022/04/01 11:30:29;;;;;;;5.57;4.70;;;;;;;8.42;60.24;97133.59;6892305;28;20232;-78
2022/04/01 11:34:01;;;;;;;4.97;4.17;;;;;;;8.48;59.67;97140.72;6892087;28;20290;-79
2022/04/01 11:37:22;;;;;;;4.50;4.10;;;;;;;8.70;58.96;97131.06;6891234;28;20247;-79
2022/04/01 11:40:47;;;;;;;4.67;4.27;;;;;;;8.67;59.08;97146.81;6892686;28;20708;-78
2022/04/01 11:44:09;;;;;;;4.50;4.10;;;;;;;8.73;59.72;97145.91;6892149;28;20715;-79
2022/04/01 11:47:34;;;;;;;4.73;4.13;;;;;;;8.58;59.38;97146.34;6890355;28;20256;-78
2022/04/01 11:51:01;;;;;;;4.60;4.20;;;;;;;8.47;58.98;97139.09;6890586;28;20225;-78
2022/04/01 11:54:22;;;;;;;4.80;4.40;;;;;;;8.66;59.56;97151.38;6890919;28;20215;-78
2022/04/01 11:57:46;;;;;;;4.73;4.37;;;;;;;8.80;59.83;97146.59;6889759;28;20231;-79
2022/04/01 12:01:07;;;;;;;4.00;3.70;;;;;;;8.65;58.40;97144.38;6890631;28;20219;-78
2022/04/01 12:04:32;;;;;;;4.50;3.97;;;;;;;8.83;59.33;97141.56;6881193;28;20264;-78
2022/04/01 12:11:40;;;;;;;6.67;4.97;;;;;;;8.69;59.01;97107.09;6890250;28;20183;-78
2022/04/01 12:15:06;;;;;;;4.80;4.40;;;;;;;7.95;60.72;97152.50;6890211;28;20184;-78
2022/04/01 12:18:30;;;;;;;4.10;3.80;;;;;;;7.74;59.86;97153.00;6889715;28;20259;-78
2022/04/01 12:21:55;;;;;;;4.87;4.47;;;;;;;8.20;59.62;97161.25;6890399;28;20347;-78
2022/04/01 12:25:17;;;;;;;4.80;4.40;;;;;;;7.69;60.15;97174.31;6890282;28;20351;-78
2022/04/01 12:28:40;;;;;;;5.00;4.50;;;;;;;7.53;60.17;97158.84;6889324;28;20703;-78
2022/04/01 12:32:05;;;;;;;5.40;4.90;;;;;;;8.05;59.73;97176.91;6889641;28;20214;-78
2022/04/01 12:35:27;;;;;;;5.07;4.67;;;;;;;7.78;60.16;97160.34;6889960;28;20191;-78
2022/04/01 12:39:01;;;;;;;6.03;5.43;;;;;;;8.24;59.35;97167.78;6889192;28;20271;-78
2022/04/01 12:42:23;;;;;;;5.90;5.40;;;;;;;8.32;59.97;97127.19;6889372;28;20203;-79
2022/04/01 12:45:57;;;;;;;5.80;5.20;;;;;;;7.40;60.02;97153.66;6888725;28;20306;-79
2022/04/01 12:49:21;;;;;;;6.23;5.73;;;;;;;7.37;61.67;97144.19;6889483;28;20333;-78
2022/04/01 12:52:43;;;;;;;5.50;5.00;;;;;;;7.77;60.59;97165.97;6889436;28;20347;-79
2022/04/01 12:56:21;;;;;;;5.77;5.27;;;;;;;7.80;60.04;97178.91;6888808;28;20732;-78
2022/04/01 12:59:45;;;;;;;5.77;5.27;;;;;;;7.76;60.64;97183.91;6886941;28;20238;-78
2022/04/01 13:03:08;;;;;;;7.13;6.53;;;;;;;8.27;59.30;97184.25;6887849;28;20221;-79
2022/04/01 13:06:31;;;;;;;7.03;6.33;;;;;;;7.99;58.04;97185.88;6888457;28;20669;-78
2022/04/01 13:09:54;;;;;;;7.30;6.60;;;;;;;7.88;59.05;97187.47;6888724;28;20347;-78
2022/04/01 13:13:20;;;;;;;8.67;7.77;;;;;;;7.95;60.47;97190.88;6888460;28;20223;-78
2022/04/01 13:16:41;;;;;;;7.43;6.73;;;;;;;8.05;59.28;97201.88;6888360;28;20239;-78
2022/04/01 13:20:03;;;;;;;7.00;6.30;;;;;;;8.18;58.94;97199.00;6888596;28;20365;-78
2022/04/01 13:23:28;;;;;;;7.67;6.83;;;;;;;8.22;58.67;97196.72;6888780;28;20216;-78
2022/04/01 13:26:50;;;;;;;8.17;7.37;;;;;;;8.43;59.76;97194.31;6887265;28;20378;-78
2022/04/01 13:30:12;;;;;;;9.23;8.33;;;;;;;8.04;60.30;97200.25;6888082;28;20596;-78
2022/04/01 13:33:34;;;;;;;8.50;7.67;;;;;;;7.70;61.03;97206.28;6888870;28;20615;-78
2022/04/01 13:36:56;;;;;;;7.30;6.63;;;;;;;6.96;60.11;97197.63;6887797;28;20706;-78
2022/04/01 13:40:19;;;;;;;8.60;7.57;;;;;;;7.03;60.23;97227.06;6887727;28;20224;-78
2022/04/01 13:43:41;;;;;;;8.33;7.53;;;;;;;7.29;59.44;97208.84;6887649;28;20346;-77
2022/04/01 13:47:03;;;;;;;9.20;8.40;;;;;;;7.46;59.43;97209.06;6887654;28;20222;-78
2022/04/01 13:50:25;;;;;;;10.80;9.27;;;;;;;7.49;59.84;97213.97;6887870;28;20229;-77
2022/04/01 13:53:47;;;;;;;10.00;9.00;;;;;;;7.35;60.31;97199.91;6887994;28;20223;-79
2022/04/01 13:57:11;;;;;;;9.87;8.97;;;;;;;7.71;59.87;97202.56;6887080;28;20204;-79
2022/04/01 14:00:33;;;;;;;8.03;7.23;;;;;;;7.75;59.23;97219.00;6887310;28;20277;-78
2022/04/01 14:03:54;;;;;;;10.27;8.63;;;;;;;7.80;59.64;97208.44;6886837;28;20208;-80
2022/04/01 14:07:16;;;;;;;8.37;7.50;;;;;;;8.18;59.75;97217.78;6886725;28;20204;-78
2022/04/01 14:10:37;;;;;;;8.73;7.93;;;;;;;8.55;59.98;97219.31;6887165;28;20292;-79
2022/04/01 14:14:01;;;;;;;6.57;6.07;;;;;;;7.94;58.70;97212.56;6887064;28;20318;-78
2022/04/01 14:17:23;;;;;;;7.53;6.83;;;;;;;8.03;60.34;97214.72;6886706;28;20215;-78
2022/04/01 14:20:46;;;;;;;6.33;5.70;;;;;;;7.61;59.50;97222.91;6887222;28;20340;-78
2022/04/01 14:24:08;;;;;;;9.67;7.37;;;;;;;7.61;59.23;97236.31;6887300;28;20238;-78
2022/04/01 14:27:29;;;;;;;10.60;8.93;;;;;;;7.07;60.39;97244.34;6886523;28;20210;-78
2022/04/01 14:30:52;;;;;;;8.43;7.63;;;;;;;6.97;59.36;97230.63;6887026;28;20583;-78
2022/04/01 14:34:14;;;;;;;10.00;9.00;;;;;;;7.21;59.10;97256.56;6887195;28;20215;-78
2022/04/01 14:37:36;;;;;;;10.20;9.20;;;;;;;6.93;59.96;97261.56;6885654;28;20825;-78
2022/04/01 14:40:58;;;;;;;11.20;10.20;;;;;;;7.36;59.43;97260.50;6886965;28;20299;-79
2022/04/01 14:44:20;;;;;;;10.37;9.27;;;;;;;6.88;59.39;97254.19;6886922;28;20600;-78
2022/04/01 14:47:43;;;;;;;12.73;11.43;;;;;;;7.59;60.40;97257.16;6886376;28;20192;-78
2022/04/01 14:51:05;;;;;;;11.07;9.97;;;;;;;7.19;60.35;97269.38;6887996;28;20242;-78
2022/04/01 14:54:26;;;;;;;9.57;8.67;;;;;;;6.89;60.09;97257.69;6888228;28;20208;-78
2022/04/01 14:57:49;;;;;;;11.93;10.73;;;;;;;6.80;61.25;97259.00;6886742;28;20231;-78
2022/04/01 15:01:11;;;;;;;10.20;9.10;;;;;;;7.03;60.36;97269.91;6887954;28;20258;-78
2022/04/01 15:04:34;;;;;;;12.33;11.03;;;;;;;7.32;60.80;97270.03;6888822;28;20232;-81
2022/04/01 15:07:56;;;;;;;13.00;11.17;;;;;;;7.79;59.87;97276.53;6887791;28;20597;-78
2022/04/01 15:11:17;;;;;;;13.57;12.17;;;;;;;7.59;59.76;97275.94;6887927;28;20240;-78
2022/04/01 15:14:39;;;;;;;13.37;11.87;;;;;;;7.64;60.59;97282.28;6889788;28;20314;-79
2022/04/01 15:18:01;;;;;;;12.87;11.10;;;;;;;7.07;59.43;97282.66;6890601;28;20721;-78
2022/04/01 15:21:24;;;;;;;12.43;11.07;;;;;;;7.06;59.70;97256.06;6891007;28;20670;-78
2022/04/01 15:24:45;;;;;;;12.37;11.07;;;;;;;7.09;59.32;97302.03;6890144;28;20236;-78
2022/04/01 15:28:07;;;;;;;13.10;11.80;;;;;;;6.89;59.47;97301.34;6890297;28;20313;-78
2022/04/01 15:31:30;;;;;;;12.07;10.80;;;;;;;6.33;60.41;97302.38;6889969;28;20236;-79
2022/04/01 15:34:52;;;;;;;13.93;11.53;;;;;;;6.98;59.58;97307.25;6891180;28;20208;-78
2022/04/01 15:38:16;;;;;;;13.37;11.97;;;;;;;7.13;58.53;97305.88;6891167;28;20264;-81
2022/04/01 15:41:38;;;;;;;13.67;12.27;;;;;;;7.53;57.74;97295.59;6892192;28;20344;-81
2022/04/01 15:45:00;;;;;;;12.87;11.47;;;;;;;7.18;58.14;97263.16;6892191;28;20232;-80
2022/04/01 15:48:21;;;;;;;14.43;12.93;;;;;;;7.28;59.73;97305.53;6891748;28;20230;-81
2022/04/01 15:51:43;;;;;;;14.07;12.30;;;;;;;7.44;58.98;97316.53;6897534;28;20234;-81
2022/04/01 15:55:07;;;;;;;16.20;13.03;;;;;;;7.31;58.21;97308.59;6898029;28;20209;-81
2022/04/01 15:58:29;;;;;;;14.37;12.87;;;;;;;7.37;59.28;97312.28;6907445;28;20235;-79
2022/04/01 16:01:52;;;;;;;13.47;12.17;;;;;;;7.56;58.70;97316.63;6912060;28;20213;-79
2022/04/01 16:05:14;;;;;;;14.37;12.87;;;;;;;7.40;59.49;97326.06;6905950;28;20271;-78
2022/04/01 16:08:37;;;;;;;15.30;12.63;;;;;;;7.42;59.10;97332.00;6899360;28;20265;-81
2022/04/01 16:12:01;;;;;;;15.53;13.83;;;;;;;7.67;59.03;97331.97;6895697;28;20248;-81
2022/04/01 16:15:23;;;;;;;13.03;11.63;;;;;;;7.02;60.21;97337.94;6895656;28;20234;-81
2022/04/01 16:18:46;;;;;;;13.93;12.43;;;;;;;7.48;60.27;97351.78;6896000;28;20228;-81